sensor_id;sensor_type;location;lat;lon;timestamp;pressure;altitude;pressure_sealevel;temperature;humidity
45441;BME280;31189;38.790;-77.084;2023-07-30T00:00:13;100689.86;;;31.84;60.24
45441;BME280;31189;38.790;-77.084;2023-07-30T00:02:38;100695.21;;;31.86;59.68
45441;BME280;31189;38.790;-77.084;2023-07-30T00:05:04;100702.32;;;31.05;54.61
45441;BME280;31189;38.790;-77.084;2023-07-30T00:07:29;100712.34;;;31.19;57.96
45441;BME280;31189;38.790;-77.084;2023-07-30T00:09:54;100714.09;;;31.49;58.52
45441;BME280;31189;38.790;-77.084;2023-07-30T00:12:20;100723.15;;;30.65;56.74
45441;BME280;31189;38.790;-77.084;2023-07-30T00:14:46;100727.85;;;30.60;58.24
45441;BME280;31189;38.790;-77.084;2023-07-30T00:17:11;100737.81;;;29.38;55.32
45441;BME280;31189;38.790;-77.084;2023-07-30T00:19:37;100745.52;;;29.94;56.75
45441;BME280;31189;38.790;-77.084;2023-07-30T00:22:03;100752.64;;;30.55;56.42
45441;BME280;31189;38.790;-77.084;2023-07-30T00:24:28;100761.21;;;30.64;56.64
45441;BME280;31189;38.790;-77.084;2023-07-30T00:26:54;100764.43;;;29.52;54.62
45441;BME280;31189;38.790;-77.084;2023-07-30T00:29:20;100775.71;;;29.94;54.52
45441;BME280;31189;38.790;-77.084;2023-07-30T00:31:45;100786.08;;;30.37;52.87
45441;BME280;31189;38.790;-77.084;2023-07-30T00:34:11;100789.85;;;31.20;54.31
45441;BME280;31189;38.790;-77.084;2023-07-30T00:36:36;100784.65;;;30.32;51.22
45441;BME280;31189;38.790;-77.084;2023-07-30T00:39:02;100781.36;;;30.38;49.96
45441;BME280;31189;38.790;-77.084;2023-07-30T00:41:28;100777.82;;;30.12;52.24
45441;BME280;31189;38.790;-77.084;2023-07-30T00:43:54;100779.61;;;30.13;50.58
45441;BME280;31189;38.790;-77.084;2023-07-30T00:46:19;100780.60;;;30.17;49.32
45441;BME280;31189;38.790;-77.084;2023-07-30T00:48:45;100774.57;;;30.47;51.02
45441;BME280;31189;38.790;-77.084;2023-07-30T00:51:13;100779.64;;;29.97;48.34
45441;BME280;31189;38.790;-77.084;2023-07-30T00:53:36;100781.22;;;28.66;49.43
45441;BME280;31189;38.790;-77.084;2023-07-30T00:56:02;100788.87;;;29.30;48.57
45441;BME280;31189;38.790;-77.084;2023-07-30T00:58:28;100783.07;;;30.18;46.82
45441;BME280;31189;38.790;-77.084;2023-07-30T01:00:53;100794.30;;;30.23;46.62
45441;BME280;31189;38.790;-77.084;2023-07-30T01:03:19;100799.34;;;30.05;48.72
45441;BME280;31189;38.790;-77.084;2023-07-30T01:05:45;100802.74;;;30.29;47.51
45441;BME280;31189;38.790;-77.084;2023-07-30T01:08:10;100805.59;;;30.50;47.08
45441;BME280;31189;38.790;-77.084;2023-07-30T01:10:37;100812.04;;;30.18;45.34
45441;BME280;31189;38.790;-77.084;2023-07-30T01:13:03;100810.77;;;30.26;44.71
45441;BME280;31189;38.790;-77.084;2023-07-30T01:15:27;100811.22;;;30.69;45.81
45441;BME280;31189;38.790;-77.084;2023-07-30T01:17:52;100825.59;;;30.25;46.10
45441;BME280;31189;38.790;-77.084;2023-07-30T01:20:17;100830.44;;;30.59;44.68
45441;BME280;31189;38.790;-77.084;2023-07-30T01:22:42;100839.95;;;30.61;46.41
45441;BME280;31189;38.790;-77.084;2023-07-30T01:25:08;100844.38;;;30.61;45.29
45441;BME280;31189;38.790;-77.084;2023-07-30T01:27:37;100847.76;;;30.93;44.79
45441;BME280;31189;38.790;-77.084;2023-07-30T01:30:02;100861.66;;;30.82;43.81
45441;BME280;31189;38.790;-77.084;2023-07-30T01:32:26;100870.36;;;31.48;42.92
45441;BME280;31189;38.790;-77.084;2023-07-30T01:34:52;100882.01;;;31.02;41.15
45441;BME280;31189;38.790;-77.084;2023-07-30T01:37:15;100894.81;;;31.73;42.14
45441;BME280;31189;38.790;-77.084;2023-07-30T01:39:41;100904.58;;;32.04;41.23
45441;BME280;31189;38.790;-77.084;2023-07-30T01:42:06;100913.03;;;32.08;39.80
45441;BME280;31189;38.790;-77.084;2023-07-30T01:44:32;100913.20;;;32.56;39.47
45441;BME280;31189;38.790;-77.084;2023-07-30T01:46:58;100914.12;;;32.60;41.84
45441;BME280;31189;38.790;-77.084;2023-07-30T01:49:23;100909.13;;;32.35;41.56
45441;BME280;31189;38.790;-77.084;2023-07-30T01:51:49;100910.81;;;32.34;42.26
45441;BME280;31189;38.790;-77.084;2023-07-30T01:54:15;100916.72;;;32.23;41.64
45441;BME280;31189;38.790;-77.084;2023-07-30T01:56:40;100920.20;;;32.11;42.26
45441;BME280;31189;38.790;-77.084;2023-07-30T01:59:06;100921.81;;;31.95;42.29
45441;BME280;31189;38.790;-77.084;2023-07-30T02:01:32;100921.05;;;31.62;41.48
45441;BME280;31189;38.790;-77.084;2023-07-30T02:03:57;100922.79;;;32.07;41.33
45441;BME280;31189;38.790;-77.084;2023-07-30T02:06:23;100927.59;;;31.90;40.98
45441;BME280;31189;38.790;-77.084;2023-07-30T02:08:49;100936.63;;;31.82;43.50
45441;BME280;31189;38.790;-77.084;2023-07-30T02:11:14;100941.82;;;31.05;40.64
45441;BME280;31189;38.790;-77.084;2023-07-30T02:13:40;100941.58;;;31.95;41.06
45441;BME280;31189;38.790;-77.084;2023-07-30T02:16:06;100938.80;;;31.65;41.02
45441;BME280;31189;38.790;-77.084;2023-07-30T02:18:31;100935.77;;;32.02;41.64
45441;BME280;31189;38.790;-77.084;2023-07-30T02:20:58;100938.45;;;31.94;41.24
45441;BME280;31189;38.790;-77.084;2023-07-30T02:23:23;100935.61;;;31.68;41.24
45441;BME280;31189;38.790;-77.084;2023-07-30T02:25:48;100936.02;;;31.49;41.18
45441;BME280;31189;38.790;-77.084;2023-07-30T02:28:14;100937.08;;;31.49;41.57
45441;BME280;31189;38.790;-77.084;2023-07-30T02:30:39;100937.48;;;31.38;42.06
45441;BME280;31189;38.790;-77.084;2023-07-30T02:33:05;100940.21;;;31.26;41.43
45441;BME280;31189;38.790;-77.084;2023-07-30T02:35:31;100939.50;;;31.63;40.73
45441;BME280;31189;38.790;-77.084;2023-07-30T02:37:56;100947.19;;;31.53;40.76
45441;BME280;31189;38.790;-77.084;2023-07-30T02:40:22;100948.63;;;31.46;40.58
45441;BME280;31189;38.790;-77.084;2023-07-30T02:42:48;100954.31;;;31.81;41.05
45441;BME280;31189;38.790;-77.084;2023-07-30T02:45:13;100954.70;;;31.80;40.36
45441;BME280;31189;38.790;-77.084;2023-07-30T02:47:39;100962.29;;;31.86;40.78
45441;BME280;31189;38.790;-77.084;2023-07-30T02:50:06;100958.27;;;30.87;41.95
45441;BME280;31189;38.790;-77.084;2023-07-30T02:52:30;100944.94;;;30.61;42.86
45441;BME280;31189;38.790;-77.084;2023-07-30T02:54:56;100942.75;;;30.80;43.04
45441;BME280;31189;38.790;-77.084;2023-07-30T02:57:22;100950.92;;;30.93;42.42
45441;BME280;31189;38.790;-77.084;2023-07-30T02:59:47;100955.03;;;30.52;42.08
45441;BME280;31189;38.790;-77.084;2023-07-30T03:02:13;100962.86;;;30.70;42.57
45441;BME280;31189;38.790;-77.084;2023-07-30T03:04:39;100967.28;;;30.96;42.63
45441;BME280;31189;38.790;-77.084;2023-07-30T03:07:05;100964.90;;;30.92;41.33
45441;BME280;31189;38.790;-77.084;2023-07-30T03:09:30;100968.09;;;31.27;41.03
45441;BME280;31189;38.790;-77.084;2023-07-30T03:11:56;100968.51;;;31.48;40.98
45441;BME280;31189;38.790;-77.084;2023-07-30T03:14:21;100970.85;;;31.31;39.77
45441;BME280;31189;38.790;-77.084;2023-07-30T03:16:47;100977.29;;;31.41;41.02
45441;BME280;31189;38.790;-77.084;2023-07-30T03:19:13;100977.57;;;31.32;41.73
45441;BME280;31189;38.790;-77.084;2023-07-30T03:21:38;100973.24;;;31.12;42.01
45441;BME280;31189;38.790;-77.084;2023-07-30T03:24:04;100967.99;;;31.48;41.98
45441;BME280;31189;38.790;-77.084;2023-07-30T03:26:30;100965.91;;;30.47;40.89
45441;BME280;31189;38.790;-77.084;2023-07-30T03:28:55;100968.88;;;31.20;41.76
45441;BME280;31189;38.790;-77.084;2023-07-30T03:31:21;100976.22;;;30.99;41.44
45441;BME280;31189;38.790;-77.084;2023-07-30T03:33:47;100987.70;;;30.96;40.27
45441;BME280;31189;38.790;-77.084;2023-07-30T03:36:13;100995.52;;;30.76;41.52
45441;BME280;31189;38.790;-77.084;2023-07-30T03:38:38;100997.17;;;30.29;41.68
45441;BME280;31189;38.790;-77.084;2023-07-30T03:41:05;101001.07;;;30.74;41.16
45441;BME280;31189;38.790;-77.084;2023-07-30T03:43:29;101008.66;;;30.86;40.54
45441;BME280;31189;38.790;-77.084;2023-07-30T03:45:55;101010.29;;;31.56;41.51
45441;BME280;31189;38.790;-77.084;2023-07-30T03:48:20;101012.60;;;31.53;40.79
45441;BME280;31189;38.790;-77.084;2023-07-30T03:50:46;101014.96;;;31.49;41.57
45441;BME280;31189;38.790;-77.084;2023-07-30T03:53:12;101011.97;;;31.75;39.91
45441;BME280;31189;38.790;-77.084;2023-07-30T03:55:37;101010.32;;;31.86;40.13
45441;BME280;31189;38.790;-77.084;2023-07-30T03:58:03;101008.55;;;31.71;40.95
45441;BME280;31189;38.790;-77.084;2023-07-30T04:00:29;101007.15;;;31.64;39.53
45441;BME280;31189;38.790;-77.084;2023-07-30T04:02:54;101013.85;;;31.65;39.10
45441;BME280;31189;38.790;-77.084;2023-07-30T04:05:20;101018.00;;;31.82;40.89
45441;BME280;31189;38.790;-77.084;2023-07-30T04:07:46;101019.23;;;31.85;39.82
45441;BME280;31189;38.790;-77.084;2023-07-30T04:10:11;101014.45;;;31.79;41.10
45441;BME280;31189;38.790;-77.084;2023-07-30T04:12:37;101009.20;;;31.91;40.06
45441;BME280;31189;38.790;-77.084;2023-07-30T04:15:03;101010.07;;;32.07;40.19
45441;BME280;31189;38.790;-77.084;2023-07-30T04:17:28;101007.83;;;32.09;38.86
45441;BME280;31189;38.790;-77.084;2023-07-30T04:19:54;101008.17;;;31.71;38.59
45441;BME280;31189;38.790;-77.084;2023-07-30T04:22:20;101014.93;;;31.95;38.36
45441;BME280;31189;38.790;-77.084;2023-07-30T04:24:45;101015.53;;;31.99;38.14
45441;BME280;31189;38.790;-77.084;2023-07-30T04:27:11;101012.84;;;32.25;38.62
45441;BME280;31189;38.790;-77.084;2023-07-30T04:29:37;101012.72;;;31.67;38.80
45441;BME280;31189;38.790;-77.084;2023-07-30T04:32:03;101011.96;;;31.71;38.77
45441;BME280;31189;38.790;-77.084;2023-07-30T04:34:28;101008.44;;;31.66;39.54
45441;BME280;31189;38.790;-77.084;2023-07-30T04:36:54;101010.73;;;32.14;39.06
45441;BME280;31189;38.790;-77.084;2023-07-30T04:39:19;101010.77;;;32.15;39.56
45441;BME280;31189;38.790;-77.084;2023-07-30T04:41:45;101005.14;;;31.94;39.71
45441;BME280;31189;38.790;-77.084;2023-07-30T04:44:11;101001.53;;;31.20;39.96
45441;BME280;31189;38.790;-77.084;2023-07-30T04:46:36;100998.87;;;31.38;40.24
45441;BME280;31189;38.790;-77.084;2023-07-30T04:49:03;100998.11;;;31.12;40.65
45441;BME280;31189;38.790;-77.084;2023-07-30T04:51:28;100995.11;;;30.88;41.81
45441;BME280;31189;38.790;-77.084;2023-07-30T04:53:53;100995.58;;;30.80;41.86
45441;BME280;31189;38.790;-77.084;2023-07-30T04:56:19;100993.63;;;30.26;41.70
45441;BME280;31189;38.790;-77.084;2023-07-30T04:58:45;100990.51;;;30.63;41.53
45441;BME280;31189;38.790;-77.084;2023-07-30T05:01:10;100990.43;;;30.57;42.14
45441;BME280;31189;38.790;-77.084;2023-07-30T05:03:36;100997.01;;;30.45;42.69
45441;BME280;31189;38.790;-77.084;2023-07-30T05:06:02;100998.57;;;30.87;42.25
45441;BME280;31189;38.790;-77.084;2023-07-30T05:08:27;100992.93;;;31.07;41.34
45441;BME280;31189;38.790;-77.084;2023-07-30T05:10:53;100993.86;;;30.91;41.42
45441;BME280;31189;38.790;-77.084;2023-07-30T05:13:19;100991.96;;;30.74;41.12
45441;BME280;31189;38.790;-77.084;2023-07-30T05:15:44;100984.10;;;31.23;42.28
45441;BME280;31189;38.790;-77.084;2023-07-30T05:18:10;100981.18;;;30.87;41.43
45441;BME280;31189;38.790;-77.084;2023-07-30T05:20:35;100981.86;;;31.34;41.39
45441;BME280;31189;38.790;-77.084;2023-07-30T05:23:01;100980.31;;;31.23;41.81
45441;BME280;31189;38.790;-77.084;2023-07-30T05:25:27;100980.62;;;31.58;40.69
45441;BME280;31189;38.790;-77.084;2023-07-30T05:27:52;100982.96;;;31.50;40.50
45441;BME280;31189;38.790;-77.084;2023-07-30T05:30:18;100985.73;;;31.44;40.43
45441;BME280;31189;38.790;-77.084;2023-07-30T05:32:44;100993.88;;;31.56;40.40
45441;BME280;31189;38.790;-77.084;2023-07-30T05:35:09;100994.69;;;31.60;40.92
45441;BME280;31189;38.790;-77.084;2023-07-30T05:37:35;100991.51;;;31.62;40.33
45441;BME280;31189;38.790;-77.084;2023-07-30T05:40:01;100989.19;;;31.58;39.66
45441;BME280;31189;38.790;-77.084;2023-07-30T05:42:26;100983.07;;;31.59;40.41
45441;BME280;31189;38.790;-77.084;2023-07-30T05:44:52;100982.34;;;31.55;41.24
45441;BME280;31189;38.790;-77.084;2023-07-30T05:47:17;100984.92;;;31.55;44.53
45441;BME280;31189;38.790;-77.084;2023-07-30T05:49:43;100985.84;;;31.52;44.15
45441;BME280;31189;38.790;-77.084;2023-07-30T05:52:09;100980.82;;;31.21;43.25
45441;BME280;31189;38.790;-77.084;2023-07-30T05:54:34;100974.35;;;31.23;43.51
45441;BME280;31189;38.790;-77.084;2023-07-30T05:57:00;100972.83;;;31.24;43.93
45441;BME280;31189;38.790;-77.084;2023-07-30T05:59:26;100974.21;;;31.48;43.98
45441;BME280;31189;38.790;-77.084;2023-07-30T06:01:51;100974.69;;;31.48;43.70
45441;BME280;31189;38.790;-77.084;2023-07-30T06:04:17;100972.90;;;31.33;43.35
45441;BME280;31189;38.790;-77.084;2023-07-30T06:06:43;100968.35;;;31.19;43.84
45441;BME280;31189;38.790;-77.084;2023-07-30T06:09:08;100964.20;;;31.17;43.37
45441;BME280;31189;38.790;-77.084;2023-07-30T06:11:34;100959.29;;;31.18;42.80
45441;BME280;31189;38.790;-77.084;2023-07-30T06:14:00;100959.61;;;30.91;44.34
45441;BME280;31189;38.790;-77.084;2023-07-30T06:16:25;100960.63;;;31.13;44.80
45441;BME280;31189;38.790;-77.084;2023-07-30T06:18:51;100956.40;;;30.95;44.33
45441;BME280;31189;38.790;-77.084;2023-07-30T06:21:17;100960.09;;;31.03;44.61
45441;BME280;31189;38.790;-77.084;2023-07-30T06:23:42;100961.26;;;31.23;43.87
45441;BME280;31189;38.790;-77.084;2023-07-30T06:26:08;100959.67;;;31.14;44.31
45441;BME280;31189;38.790;-77.084;2023-07-30T06:28:34;100954.44;;;31.11;44.42
45441;BME280;31189;38.790;-77.084;2023-07-30T06:31:00;100952.48;;;30.87;44.61
45441;BME280;31189;38.790;-77.084;2023-07-30T06:33:25;100955.56;;;31.04;44.21
45441;BME280;31189;38.790;-77.084;2023-07-30T06:35:51;100962.93;;;30.63;44.57
45441;BME280;31189;38.790;-77.084;2023-07-30T06:38:16;100968.82;;;30.65;45.05
45441;BME280;31189;38.790;-77.084;2023-07-30T06:40:42;100972.41;;;31.06;44.54
45441;BME280;31189;38.790;-77.084;2023-07-30T06:43:08;100975.39;;;30.57;44.70
45441;BME280;31189;38.790;-77.084;2023-07-30T06:45:33;100977.54;;;30.33;45.70
45441;BME280;31189;38.790;-77.084;2023-07-30T06:47:59;100971.19;;;30.10;45.04
45441;BME280;31189;38.790;-77.084;2023-07-30T06:50:25;100972.28;;;30.45;45.21
45441;BME280;31189;38.790;-77.084;2023-07-30T06:52:50;100969.14;;;30.45;46.11
45441;BME280;31189;38.790;-77.084;2023-07-30T06:55:16;100963.94;;;30.37;45.86
45441;BME280;31189;38.790;-77.084;2023-07-30T06:57:42;100965.40;;;30.35;45.90
45441;BME280;31189;38.790;-77.084;2023-07-30T07:00:08;100966.41;;;30.59;46.70
45441;BME280;31189;38.790;-77.084;2023-07-30T07:02:33;100969.39;;;30.49;48.61
45441;BME280;31189;38.790;-77.084;2023-07-30T07:04:58;100975.13;;;30.41;48.23
45441;BME280;31189;38.790;-77.084;2023-07-30T07:07:24;100971.62;;;29.80;48.81
45441;BME280;31189;38.790;-77.084;2023-07-30T07:09:50;100966.57;;;30.16;48.85
45441;BME280;31189;38.790;-77.084;2023-07-30T07:12:15;100970.98;;;30.24;48.64
45441;BME280;31189;38.790;-77.084;2023-07-30T07:14:41;100966.87;;;30.34;48.37
45441;BME280;31189;38.790;-77.084;2023-07-30T07:17:07;100962.45;;;29.96;46.29
45441;BME280;31189;38.790;-77.084;2023-07-30T07:19:32;100963.71;;;30.57;46.29
45441;BME280;31189;38.790;-77.084;2023-07-30T07:21:58;100963.61;;;30.40;46.51
45441;BME280;31189;38.790;-77.084;2023-07-30T07:24:24;100962.90;;;30.46;46.02
45441;BME280;31189;38.790;-77.084;2023-07-30T07:26:49;100962.30;;;30.53;45.71
45441;BME280;31189;38.790;-77.084;2023-07-30T07:29:15;100961.95;;;30.64;46.07
45441;BME280;31189;38.790;-77.084;2023-07-30T07:31:41;100965.55;;;30.59;45.29
45441;BME280;31189;38.790;-77.084;2023-07-30T07:34:06;100970.63;;;30.42;45.63
45441;BME280;31189;38.790;-77.084;2023-07-30T07:36:32;100968.39;;;30.52;45.53
45441;BME280;31189;38.790;-77.084;2023-07-30T07:38:58;100970.51;;;30.27;45.51
45441;BME280;31189;38.790;-77.084;2023-07-30T07:41:23;100972.58;;;30.46;46.09
45441;BME280;31189;38.790;-77.084;2023-07-30T07:43:49;100961.38;;;29.99;46.37
45441;BME280;31189;38.790;-77.084;2023-07-30T07:46:15;100958.26;;;29.69;46.82
45441;BME280;31189;38.790;-77.084;2023-07-30T07:48:41;100958.67;;;29.98;47.26
45441;BME280;31189;38.790;-77.084;2023-07-30T07:51:06;100969.63;;;29.82;46.66
45441;BME280;31189;38.790;-77.084;2023-07-30T07:53:31;100981.56;;;29.93;46.61
45441;BME280;31189;38.790;-77.084;2023-07-30T07:55:57;100984.29;;;30.49;46.09
45441;BME280;31189;38.790;-77.084;2023-07-30T07:58:23;100987.73;;;30.09;45.98
45441;BME280;31189;38.790;-77.084;2023-07-30T08:00:49;100989.71;;;30.22;45.97
45441;BME280;31189;38.790;-77.084;2023-07-30T08:03:14;100999.35;;;30.33;45.62
45441;BME280;31189;38.790;-77.084;2023-07-30T08:05:40;101002.12;;;30.30;45.49
45441;BME280;31189;38.790;-77.084;2023-07-30T08:08:05;101003.42;;;30.40;45.83
45441;BME280;31189;38.790;-77.084;2023-07-30T08:10:31;101004.62;;;30.50;45.48
45441;BME280;31189;38.790;-77.084;2023-07-30T08:12:56;101010.94;;;30.61;44.89
45441;BME280;31189;38.790;-77.084;2023-07-30T08:15:22;101012.11;;;30.70;45.67
45441;BME280;31189;38.790;-77.084;2023-07-30T08:17:48;101014.18;;;30.76;45.14
45441;BME280;31189;38.790;-77.084;2023-07-30T08:20:13;101012.84;;;30.18;45.32
45441;BME280;31189;38.790;-77.084;2023-07-30T08:22:39;101016.01;;;30.67;45.57
45441;BME280;31189;38.790;-77.084;2023-07-30T08:25:05;101033.78;;;30.46;44.87
45441;BME280;31189;38.790;-77.084;2023-07-30T08:27:30;101032.83;;;30.60;44.91
45441;BME280;31189;38.790;-77.084;2023-07-30T08:29:56;101028.67;;;30.62;43.96
45441;BME280;31189;38.790;-77.084;2023-07-30T08:32:21;101038.44;;;30.57;44.31
45441;BME280;31189;38.790;-77.084;2023-07-30T08:34:47;101046.25;;;30.07;44.54
45441;BME280;31189;38.790;-77.084;2023-07-30T08:37:13;101045.02;;;30.27;44.21
45441;BME280;31189;38.790;-77.084;2023-07-30T08:39:38;101046.41;;;30.23;42.80
45441;BME280;31189;38.790;-77.084;2023-07-30T08:42:04;101051.98;;;30.12;42.60
45441;BME280;31189;38.790;-77.084;2023-07-30T08:44:30;101055.73;;;30.46;43.27
45441;BME280;31189;38.790;-77.084;2023-07-30T08:46:55;101056.59;;;30.26;42.83
45441;BME280;31189;38.790;-77.084;2023-07-30T08:49:21;101060.38;;;30.29;42.50
45441;BME280;31189;38.790;-77.084;2023-07-30T08:51:48;101056.64;;;30.31;41.22
45441;BME280;31189;38.790;-77.084;2023-07-30T08:54:12;101062.61;;;30.27;41.65
45441;BME280;31189;38.790;-77.084;2023-07-30T08:56:38;101068.99;;;30.54;42.30
45441;BME280;31189;38.790;-77.084;2023-07-30T08:59:04;101068.58;;;30.60;41.64
45441;BME280;31189;38.790;-77.084;2023-07-30T09:01:32;101073.64;;;30.40;42.77
45441;BME280;31189;38.790;-77.084;2023-07-30T09:03:55;101075.33;;;30.42;42.12
45441;BME280;31189;38.790;-77.084;2023-07-30T09:06:21;101078.39;;;30.30;41.71
45441;BME280;31189;38.790;-77.084;2023-07-30T09:08:46;101082.04;;;30.49;41.29
45441;BME280;31189;38.790;-77.084;2023-07-30T09:11:12;101082.26;;;30.48;41.26
45441;BME280;31189;38.790;-77.084;2023-07-30T09:13:38;101093.22;;;30.06;40.76
45441;BME280;31189;38.790;-77.084;2023-07-30T09:16:08;101092.69;;;30.31;40.21
45441;BME280;31189;38.790;-77.084;2023-07-30T09:18:29;101096.29;;;30.32;41.69
45441;BME280;31189;38.790;-77.084;2023-07-30T09:20:54;101107.30;;;30.30;41.90
45441;BME280;31189;38.790;-77.084;2023-07-30T09:23:20;101111.12;;;30.29;40.84
45441;BME280;31189;38.790;-77.084;2023-07-30T09:25:48;101113.27;;;30.17;39.44
45441;BME280;31189;38.790;-77.084;2023-07-30T09:28:11;101117.54;;;30.06;39.64
45441;BME280;31189;38.790;-77.084;2023-07-30T09:30:37;101128.29;;;30.06;40.80
45441;BME280;31189;38.790;-77.084;2023-07-30T09:33:02;101133.81;;;30.12;41.49
45441;BME280;31189;38.790;-77.084;2023-07-30T09:35:28;101131.82;;;30.10;39.91
45441;BME280;31189;38.790;-77.084;2023-07-30T09:37:59;101137.05;;;30.02;39.78
45441;BME280;31189;38.790;-77.084;2023-07-30T09:40:19;101154.17;;;30.08;41.04
45441;BME280;31189;38.790;-77.084;2023-07-30T09:42:46;101160.57;;;30.55;40.89
45441;BME280;31189;38.790;-77.084;2023-07-30T09:45:17;101160.49;;;30.06;40.38
45441;BME280;31189;38.790;-77.084;2023-07-30T09:47:37;101163.23;;;29.93;39.87
45441;BME280;31189;38.790;-77.084;2023-07-30T09:50:02;101169.40;;;29.88;40.95
45441;BME280;31189;38.790;-77.084;2023-07-30T09:52:28;101171.60;;;30.08;41.17
45441;BME280;31189;38.790;-77.084;2023-07-30T09:54:53;101172.07;;;29.91;41.50
45441;BME280;31189;38.790;-77.084;2023-07-30T09:57:19;101177.91;;;30.31;40.51
45441;BME280;31189;38.790;-77.084;2023-07-30T09:59:45;101186.12;;;29.85;40.20
45441;BME280;31189;38.790;-77.084;2023-07-30T10:02:11;101187.33;;;29.74;39.84
45441;BME280;31189;38.790;-77.084;2023-07-30T10:04:39;101189.32;;;29.74;39.65
45441;BME280;31189;38.790;-77.084;2023-07-30T10:07:06;101190.07;;;29.87;39.75
45441;BME280;31189;38.790;-77.084;2023-07-30T10:09:31;101194.36;;;29.87;39.83
45441;BME280;31189;38.790;-77.084;2023-07-30T10:11:54;101200.91;;;29.61;40.14
45441;BME280;31189;38.790;-77.084;2023-07-30T10:14:22;101208.71;;;29.56;40.78
45441;BME280;31189;38.790;-77.084;2023-07-30T10:16:50;101215.72;;;29.94;40.72
45441;BME280;31189;38.790;-77.084;2023-07-30T10:19:10;101216.47;;;29.77;41.06
45441;BME280;31189;38.790;-77.084;2023-07-30T10:21:35;101212.09;;;29.97;41.60
45441;BME280;31189;38.790;-77.084;2023-07-30T10:24:02;101215.20;;;29.97;41.76
45441;BME280;31189;38.790;-77.084;2023-07-30T10:26:28;101218.37;;;29.94;42.57
45441;BME280;31189;38.790;-77.084;2023-07-30T10:31:18;101225.10;;;29.97;42.21
45441;BME280;31189;38.790;-77.084;2023-07-30T10:33:47;101226.44;;;29.28;41.77
45441;BME280;31189;38.790;-77.084;2023-07-30T10:36:10;101233.03;;;29.79;42.80
45441;BME280;31189;38.790;-77.084;2023-07-30T10:38:35;101243.35;;;29.80;43.31
45441;BME280;31189;38.790;-77.084;2023-07-30T10:41:04;101249.04;;;29.79;43.33
45441;BME280;31189;38.790;-77.084;2023-07-30T10:43:28;101255.83;;;29.43;43.20
45441;BME280;31189;38.790;-77.084;2023-07-30T10:45:52;101258.09;;;29.72;44.11
45441;BME280;31189;38.790;-77.084;2023-07-30T10:48:17;101258.54;;;29.72;44.89
45441;BME280;31189;38.790;-77.084;2023-07-30T10:50:43;101262.39;;;29.95;45.19
45441;BME280;31189;38.790;-77.084;2023-07-30T10:53:09;101263.05;;;29.96;44.81
45441;BME280;31189;38.790;-77.084;2023-07-30T10:55:35;101265.07;;;30.05;42.93
45441;BME280;31189;38.790;-77.084;2023-07-30T10:58:00;101269.21;;;29.81;43.85
45441;BME280;31189;38.790;-77.084;2023-07-30T11:00:26;101275.66;;;30.11;44.32
45441;BME280;31189;38.790;-77.084;2023-07-30T11:02:53;101278.11;;;29.68;43.12
45441;BME280;31189;38.790;-77.084;2023-07-30T11:05:17;101279.22;;;29.81;43.67
45441;BME280;31189;38.790;-77.084;2023-07-30T11:07:49;101289.35;;;30.00;43.46
45441;BME280;31189;38.790;-77.084;2023-07-30T11:10:09;101295.44;;;29.74;43.20
45441;BME280;31189;38.790;-77.084;2023-07-30T11:12:34;101296.00;;;30.23;42.27
45441;BME280;31189;38.790;-77.084;2023-07-30T11:15:02;101296.70;;;30.21;42.52
45441;BME280;31189;38.790;-77.084;2023-07-30T11:17:25;101294.92;;;29.69;42.16
45441;BME280;31189;38.790;-77.084;2023-07-30T11:19:51;101295.61;;;29.93;43.38
45441;BME280;31189;38.790;-77.084;2023-07-30T11:22:16;101299.73;;;29.86;43.20
45441;BME280;31189;38.790;-77.084;2023-07-30T11:24:42;101304.57;;;29.64;41.71
45441;BME280;31189;38.790;-77.084;2023-07-30T11:27:08;101309.57;;;29.99;41.72
45441;BME280;31189;38.790;-77.084;2023-07-30T11:29:33;101317.09;;;30.01;41.73
45441;BME280;31189;38.790;-77.084;2023-07-30T11:32:00;101316.70;;;30.08;41.50
45441;BME280;31189;38.790;-77.084;2023-07-30T11:34:25;101313.99;;;29.94;41.99
45441;BME280;31189;38.790;-77.084;2023-07-30T11:36:50;101315.59;;;30.04;42.39
45441;BME280;31189;38.790;-77.084;2023-07-30T11:39:16;101318.44;;;30.12;40.89
45441;BME280;31189;38.790;-77.084;2023-07-30T11:41:42;101317.68;;;30.41;41.58
45441;BME280;31189;38.790;-77.084;2023-07-30T11:44:08;101314.70;;;30.50;41.42
45441;BME280;31189;38.790;-77.084;2023-07-30T11:46:33;101312.10;;;30.15;41.31
45441;BME280;31189;38.790;-77.084;2023-07-30T11:49:10;101314.51;;;30.11;40.37
45441;BME280;31189;38.790;-77.084;2023-07-30T11:51:26;101313.09;;;30.38;39.67
45441;BME280;31189;38.790;-77.084;2023-07-30T11:53:52;101317.65;;;29.98;39.73
45441;BME280;31189;38.790;-77.084;2023-07-30T11:56:18;101322.62;;;29.98;40.07
45441;BME280;31189;38.790;-77.084;2023-07-30T11:58:42;101321.51;;;30.10;40.32
45441;BME280;31189;38.790;-77.084;2023-07-30T12:01:07;101315.44;;;29.86;39.10
45441;BME280;31189;38.790;-77.084;2023-07-30T12:03:33;101317.96;;;29.86;40.32
45441;BME280;31189;38.790;-77.084;2023-07-30T12:05:58;101319.72;;;30.13;39.07
45441;BME280;31189;38.790;-77.084;2023-07-30T12:08:27;101319.28;;;29.83;39.57
45441;BME280;31189;38.790;-77.084;2023-07-30T12:10:50;101320.90;;;30.25;39.42
45441;BME280;31189;38.790;-77.084;2023-07-30T12:13:18;101320.83;;;30.51;39.16
45441;BME280;31189;38.790;-77.084;2023-07-30T12:15:44;101321.89;;;30.10;38.99
45441;BME280;31189;38.790;-77.084;2023-07-30T12:18:07;101327.66;;;30.12;39.44
45441;BME280;31189;38.790;-77.084;2023-07-30T12:20:32;101330.35;;;30.68;39.70
45441;BME280;31189;38.790;-77.084;2023-07-30T12:22:58;101325.08;;;30.91;40.13